createdAt,value
2023-10-26T00:01:32.660Z,3.67
2023-10-26T00:04:00.840Z,3.70
2023-10-26T00:06:28.406Z,5.05
2023-10-26T00:08:56.283Z,3.83
2023-10-26T00:11:23.844Z,4.18
2023-10-26T00:13:51.541Z,4.20
2023-10-26T00:16:18.916Z,4.25
2023-10-26T00:18:46.609Z,4.55
2023-10-26T00:21:14.421Z,3.92
2023-10-26T00:23:42.285Z,4.25
2023-10-26T00:26:09.856Z,4.35
2023-10-26T00:28:37.510Z,5.00
2023-10-26T00:31:05.191Z,4.57
2023-10-26T00:33:32.915Z,3.38
2023-10-26T00:36:00.509Z,4.30
2023-10-26T00:38:28.175Z,4.03
2023-10-26T00:40:55.509Z,4.88
2023-10-26T00:43:24.125Z,5.07
2023-10-26T00:45:53.563Z,4.78
2023-10-26T00:48:22.298Z,4.85
2023-10-26T00:50:50.187Z,5.13
2023-10-26T00:53:20.164Z,5.28
2023-10-26T00:55:49.828Z,5.65
2023-10-26T00:58:18.601Z,5.13
2023-10-26T01:00:46.158Z,4.93
2023-10-26T01:03:15.010Z,5.72
2023-10-26T01:05:42.590Z,5.65
2023-10-26T01:08:10.434Z,5.03
2023-10-26T01:10:38.410Z,5.53
2023-10-26T01:13:06.053Z,6.15
2023-10-26T01:15:33.447Z,5.50
2023-10-26T01:18:01.183Z,6.13
2023-10-26T01:20:29.276Z,5.63
2023-10-26T01:22:56.957Z,5.13
2023-10-26T01:25:24.447Z,6.32
2023-10-26T01:27:53.112Z,6.82
2023-10-26T01:30:20.577Z,6.03
2023-10-26T01:32:48.441Z,5.90
2023-10-26T01:35:16.115Z,6.47
2023-10-26T01:37:43.846Z,5.93
2023-10-26T01:40:12.096Z,6.65
2023-10-26T01:42:39.856Z,7.20
2023-10-26T01:45:08.748Z,6.97
2023-10-26T01:47:37.333Z,7.53
2023-10-26T01:50:06.155Z,6.97
2023-10-26T01:52:35.661Z,13.30
2023-10-26T01:55:03.189Z,7.47
2023-10-26T01:57:30.817Z,10.02
2023-10-26T01:59:58.763Z,7.13
2023-10-26T02:02:26.477Z,12.05
2023-10-26T02:04:55.926Z,10.30
2023-10-26T02:07:23.573Z,6.10
2023-10-26T02:09:51.086Z,9.02
2023-10-26T02:12:18.766Z,7.18
2023-10-26T02:14:46.247Z,8.55
2023-10-26T02:17:14.360Z,7.43
2023-10-26T02:19:41.969Z,7.15
2023-10-26T02:22:09.737Z,7.07
2023-10-26T02:24:37.214Z,14.18
2023-10-26T02:27:05.298Z,9.27
2023-10-26T02:29:32.699Z,16.83
2023-10-26T02:32:00.368Z,7.57
2023-10-26T02:34:27.749Z,25.20
2023-10-26T02:36:55.565Z,12.93
2023-10-26T02:39:23.597Z,25.92
2023-10-26T02:41:51.374Z,8.95
2023-10-26T02:44:18.866Z,10.57
2023-10-26T02:46:46.637Z,8.98
2023-10-26T02:49:14.026Z,8.70
2023-10-26T02:51:42.224Z,9.70
2023-10-26T02:54:10.654Z,8.50
2023-10-26T02:56:38.488Z,9.68
2023-10-26T02:59:05.884Z,14.10
2023-10-26T03:01:37.549Z,8.60
2023-10-26T03:04:06.123Z,7.45
2023-10-26T03:06:40.961Z,7.68
2023-10-26T03:09:11.919Z,6.93
2023-10-26T03:11:39.874Z,6.78
2023-10-26T03:14:07.291Z,7.18
2023-10-26T03:16:35.071Z,6.68
2023-10-26T03:19:02.600Z,6.97
2023-10-26T03:21:30.561Z,6.75
2023-10-26T03:23:58.297Z,5.13
2023-10-26T03:26:26.267Z,4.40
2023-10-26T03:28:54.239Z,4.97
2023-10-26T03:31:22.047Z,4.25
2023-10-26T03:33:50.600Z,3.70
2023-10-26T03:36:20.485Z,4.00
2023-10-26T03:38:50.165Z,3.58
2023-10-26T03:41:17.975Z,3.50
2023-10-26T03:43:45.266Z,3.33
2023-10-26T03:46:13.004Z,3.85
2023-10-26T03:48:40.399Z,3.95
2023-10-26T03:51:08.481Z,5.72
2023-10-26T03:53:35.933Z,3.55
2023-10-26T03:56:03.839Z,3.80
2023-10-26T03:58:31.302Z,4.00
2023-10-26T04:00:59.485Z,4.10
2023-10-26T04:03:27.184Z,3.53
2023-10-26T04:05:54.967Z,3.47
2023-10-26T04:08:22.264Z,3.60
2023-10-26T04:10:50.928Z,4.60
2023-10-26T04:13:18.292Z,4.63
2023-10-26T04:15:45.899Z,4.47
2023-10-26T04:18:13.479Z,5.05
2023-10-26T04:20:41.308Z,4.78
2023-10-26T04:23:08.775Z,5.47
2023-10-26T04:25:53.070Z,5.53
2023-10-26T04:28:22.730Z,4.88
2023-10-26T04:30:51.084Z,4.47
2023-10-26T04:33:19.406Z,5.03
2023-10-26T04:35:49.077Z,4.57
2023-10-26T04:38:16.411Z,4.40
2023-10-26T04:40:45.383Z,4.10
2023-10-26T04:43:12.727Z,4.13
2023-10-26T04:45:40.337Z,3.90
2023-10-26T04:48:07.820Z,4.57
2023-10-26T04:50:35.873Z,4.45
2023-10-26T04:53:03.941Z,4.43
2023-10-26T04:55:35.066Z,4.43
2023-10-26T04:58:03.996Z,5.83
2023-10-26T05:00:32.509Z,4.60
2023-10-26T05:03:00.107Z,6.10
2023-10-26T05:05:28.203Z,5.85
2023-10-26T05:07:55.856Z,6.65
2023-10-26T05:10:23.578Z,6.60
2023-10-26T05:12:51.096Z,7.45
2023-10-26T05:15:20.233Z,7.43
2023-10-26T05:17:47.684Z,6.85
2023-10-26T05:20:15.540Z,7.53
2023-10-26T05:22:42.943Z,7.30
2023-10-26T05:25:12.590Z,7.78
2023-10-26T05:27:39.972Z,6.82
2023-10-26T05:30:08.394Z,6.43
2023-10-26T05:32:36.237Z,6.95
2023-10-26T05:35:05.226Z,6.47
2023-10-26T05:37:33.188Z,6.80
2023-10-26T05:40:00.849Z,6.68
2023-10-26T05:42:28.460Z,6.10
2023-10-26T05:44:57.236Z,5.68
2023-10-26T05:47:25.279Z,6.07
2023-10-26T05:49:52.712Z,5.65
2023-10-26T05:52:20.814Z,5.38
2023-10-26T05:54:48.306Z,5.53
2023-10-26T05:57:15.937Z,6.13
2023-10-26T05:59:43.278Z,5.82
2023-10-26T06:02:12.938Z,5.53
2023-10-26T06:04:40.429Z,5.55
2023-10-26T06:07:08.131Z,5.55
2023-10-26T06:09:35.677Z,5.13
2023-10-26T06:12:03.549Z,5.22
2023-10-26T06:14:31.043Z,5.68
2023-10-26T06:16:58.733Z,6.22
2023-10-26T06:19:26.084Z,6.72
2023-10-26T06:21:53.844Z,6.13
2023-10-26T06:24:21.379Z,6.65
2023-10-26T06:26:49.097Z,5.75
2023-10-26T06:29:16.600Z,6.90
2023-10-26T06:31:45.715Z,7.28
2023-10-26T06:34:13.157Z,7.13
2023-10-26T06:36:40.791Z,7.65
2023-10-26T06:39:08.836Z,8.05
2023-10-26T06:41:36.632Z,7.65
2023-10-26T06:44:04.946Z,7.95
2023-10-26T06:46:32.799Z,8.10
2023-10-26T06:49:02.832Z,7.38
2023-10-26T06:51:34.312Z,9.85
2023-10-26T06:54:01.738Z,9.30
2023-10-26T06:56:29.441Z,11.77
2023-10-26T06:58:57.249Z,10.90
2023-10-26T07:01:25.024Z,11.98
2023-10-26T07:03:52.504Z,10.90
2023-10-26T07:06:20.772Z,12.05
2023-10-26T07:08:52.090Z,11.77
2023-10-26T07:11:24.437Z,12.38
2023-10-26T07:13:51.807Z,11.50
2023-10-26T07:16:19.676Z,10.55
2023-10-26T07:18:47.279Z,9.60
2023-10-26T07:21:16.979Z,10.70
2023-10-26T07:23:45.896Z,9.43
2023-10-26T07:26:18.962Z,8.20
2023-10-26T07:28:46.981Z,9.50
2023-10-26T07:31:21.707Z,8.30
2023-10-26T07:33:50.427Z,6.93
2023-10-26T07:36:18.594Z,7.35
2023-10-26T07:38:46.161Z,6.55
2023-10-26T07:41:14.059Z,7.18
2023-10-26T07:43:41.589Z,6.15
2023-10-26T07:46:10.731Z,6.75
2023-10-26T07:48:38.277Z,6.63
2023-10-26T07:51:06.135Z,6.30
2023-10-26T07:53:34.634Z,6.10
2023-10-26T07:56:02.904Z,6.05
2023-10-26T07:58:31.703Z,6.22
2023-10-26T08:00:59.500Z,6.53
2023-10-26T08:03:29.117Z,5.38
2023-10-26T08:06:02.014Z,5.35
2023-10-26T08:08:30.218Z,5.78
2023-10-26T08:11:07.455Z,5.80
2023-10-26T08:13:35.302Z,6.18
2023-10-26T08:16:10.966Z,6.75
2023-10-26T08:18:53.212Z,5.88
2023-10-26T08:21:21.609Z,6.23
2023-10-26T08:23:48.971Z,6.60
2023-10-26T08:26:16.716Z,6.40
2023-10-26T08:28:44.170Z,6.72
2023-10-26T08:31:12.059Z,8.00
2023-10-26T08:33:39.511Z,8.05
2023-10-26T08:36:07.720Z,6.30
2023-10-26T08:38:35.135Z,7.05
2023-10-26T08:41:03.035Z,6.20
2023-10-26T08:43:31.638Z,6.70
2023-10-26T08:46:01.489Z,6.25
2023-10-26T08:48:31.641Z,6.68
2023-10-26T08:50:59.551Z,5.55
2023-10-26T08:53:27.273Z,5.93
2023-10-26T08:55:56.286Z,5.00
2023-10-26T08:58:23.973Z,5.18
2023-10-26T09:00:55.029Z,6.10
2023-10-26T09:03:24.008Z,6.63
2023-10-26T09:05:56.638Z,6.35
2023-10-26T09:10:52.730Z,5.65
2023-10-26T09:13:28.769Z,6.05
2023-10-26T09:15:58.805Z,5.40
2023-10-26T09:18:29.520Z,6.03
2023-10-26T09:21:08.672Z,5.57
2023-10-26T09:23:41.388Z,5.20
2023-10-26T09:26:10.658Z,5.47
2023-10-26T09:28:50.229Z,4.55
2023-10-26T09:31:19.171Z,5.13
2023-10-26T09:33:47.697Z,4.10
2023-10-26T09:36:19.831Z,5.28
2023-10-26T09:41:20.115Z,5.10
2023-10-26T09:43:48.757Z,7.40
2023-10-26T09:49:06.287Z,5.68
2023-10-26T09:51:34.084Z,6.07
2023-10-26T09:54:05.149Z,6.32
2023-10-26T09:56:34.435Z,5.25
2023-10-26T09:59:02.388Z,5.05
2023-10-26T10:01:38.662Z,5.03
2023-10-26T10:04:07.443Z,4.82
2023-10-26T10:06:55.307Z,4.85
2023-10-26T10:09:24.222Z,6.20
2023-10-26T10:12:15.352Z,6.35
2023-10-26T10:15:40.778Z,7.63
2023-10-26T10:18:05.129Z,9.02
2023-10-26T10:20:37.124Z,11.10
2023-10-26T10:23:05.717Z,13.45
2023-10-26T10:25:51.217Z,12.82
2023-10-26T10:28:22.128Z,7.40
2023-10-26T10:30:58.268Z,7.82
2023-10-26T10:33:27.866Z,6.70
2023-10-26T10:36:09.518Z,5.95
2023-10-26T10:38:39.275Z,5.53
2023-10-26T10:41:09.408Z,3.00
2023-10-26T10:43:37.487Z,4.63
2023-10-26T10:46:21.587Z,2.00
2023-10-26T10:49:05.841Z,2.92
2023-10-26T10:51:33.297Z,2.78
2023-10-26T10:54:06.079Z,2.55
2023-10-26T10:56:44.495Z,3.13
2023-10-26T10:59:23.084Z,3.88
2023-10-26T11:01:52.578Z,2.83
2023-10-26T11:04:22.345Z,3.47
2023-10-26T11:06:51.556Z,2.10
2023-10-26T11:09:27.758Z,1.95
2023-10-26T11:11:56.092Z,2.45
2023-10-26T11:14:24.064Z,2.45
2023-10-26T11:16:52.171Z,2.47
2023-10-26T11:19:19.805Z,2.30
2023-10-26T11:21:47.466Z,1.88
2023-10-26T11:24:19.541Z,2.50
2023-10-26T11:29:33.614Z,2.53
2023-10-26T11:32:01.039Z,2.55
2023-10-26T11:34:29.352Z,2.30
2023-10-26T11:36:58.528Z,2.30
2023-10-26T11:39:28.626Z,2.40
2023-10-26T11:41:58.073Z,2.13
2023-10-26T11:44:31.001Z,2.38
2023-10-26T11:46:59.882Z,2.90
2023-10-26T11:49:40.872Z,3.45
2023-10-26T11:52:11.377Z,2.92
2023-10-26T11:54:51.431Z,3.10
2023-10-26T11:57:18.981Z,1.90
2023-10-26T11:59:46.668Z,3.40
2023-10-26T12:02:14.273Z,2.28
2023-10-26T12:04:41.946Z,2.53
2023-10-26T12:07:09.358Z,2.10
2023-10-26T12:09:37.071Z,2.30
2023-10-26T12:12:04.670Z,2.60
2023-10-26T12:14:32.399Z,2.00
2023-10-26T12:16:59.907Z,2.45
2023-10-26T12:19:30.259Z,2.58
2023-10-26T12:21:58.690Z,2.42
2023-10-26T12:24:27.087Z,1.90
2023-10-26T12:26:58.063Z,2.22
2023-10-26T12:29:25.911Z,2.03
2023-10-26T12:31:53.614Z,1.77
2023-10-26T12:34:21.991Z,2.20
2023-10-26T12:36:49.336Z,2.63
2023-10-26T12:39:17.117Z,3.22
2023-10-26T12:41:45.414Z,2.45
2023-10-26T12:44:13.844Z,2.40
2023-10-26T12:46:41.245Z,2.28
2023-10-26T12:49:08.969Z,2.42
2023-10-26T12:51:38.663Z,2.30
2023-10-26T12:54:10.735Z,2.45
2023-10-26T12:56:38.406Z,1.98
2023-10-26T12:59:06.117Z,1.50
2023-10-26T13:01:33.627Z,1.25
2023-10-26T13:04:01.425Z,2.00
2023-10-26T13:06:28.982Z,2.25
2023-10-26T13:08:56.719Z,2.40
2023-10-26T13:11:24.238Z,2.42
2023-10-26T13:13:51.971Z,3.05
2023-10-26T13:16:19.448Z,2.80
2023-10-26T13:18:47.676Z,2.70
2023-10-26T13:21:17.349Z,2.90
2023-10-26T13:23:44.987Z,3.40
2023-10-26T13:26:12.551Z,3.00
2023-10-26T13:28:40.231Z,4.05
2023-10-26T13:31:08.260Z,3.75
2023-10-26T13:33:36.424Z,3.47
2023-10-26T13:36:04.113Z,3.47
2023-10-26T13:38:31.836Z,3.40
2023-10-26T13:40:59.281Z,2.72
2023-10-26T13:43:26.980Z,2.05
2023-10-26T13:45:54.993Z,2.20
2023-10-26T13:48:22.636Z,1.98
2023-10-26T13:50:58.121Z,2.40
2023-10-26T13:53:25.844Z,2.38
2023-10-26T13:55:53.352Z,2.47
2023-10-26T13:58:20.928Z,2.30
2023-10-26T14:00:48.412Z,2.30
2023-10-26T14:03:16.186Z,2.42
2023-10-26T14:05:54.012Z,2.00
2023-10-26T14:08:31.512Z,2.10
2023-10-26T14:11:00.950Z,1.95
2023-10-26T14:13:29.790Z,2.00
2023-10-26T14:15:57.179Z,2.45
2023-10-26T14:18:24.861Z,2.40
2023-10-26T14:20:52.462Z,2.40
2023-10-26T14:23:21.118Z,2.80
2023-10-26T14:25:48.598Z,3.08
2023-10-26T14:28:16.508Z,2.90
2023-10-26T14:30:44.042Z,2.67
2023-10-26T14:33:11.854Z,2.67
2023-10-26T14:35:39.333Z,2.17
2023-10-26T14:38:09.714Z,2.50
2023-10-26T14:40:38.516Z,2.10
2023-10-26T14:43:06.251Z,2.20
2023-10-26T14:45:36.500Z,2.13
2023-10-26T14:48:04.884Z,2.72
2023-10-26T14:50:32.411Z,2.75
2023-10-26T14:53:00.265Z,2.45
2023-10-26T14:55:27.759Z,2.30
2023-10-26T14:57:55.550Z,2.28
2023-10-26T15:00:23.279Z,1.80
2023-10-26T15:02:51.039Z,1.95
2023-10-26T15:05:18.488Z,1.80
2023-10-26T15:07:46.268Z,1.50
2023-10-26T15:10:24.245Z,1.70
2023-10-26T15:12:55.464Z,2.13
2023-10-26T15:15:24.719Z,2.00
2023-10-26T15:17:53.408Z,2.00
2023-10-26T15:20:21.091Z,2.00
2023-10-26T15:22:48.872Z,2.13
2023-10-26T15:25:17.170Z,2.30
2023-10-26T15:27:44.916Z,2.03
2023-10-26T15:30:13.642Z,2.35
2023-10-26T15:32:41.528Z,2.10
2023-10-26T15:35:09.122Z,2.53
2023-10-26T15:37:37.588Z,2.50
2023-10-26T15:40:06.418Z,2.58
2023-10-26T15:42:34.700Z,4.10
2023-10-26T15:45:02.179Z,2.58
2023-10-26T15:47:30.131Z,3.75
2023-10-26T15:49:59.361Z,2.60
2023-10-26T15:52:27.408Z,3.05
2023-10-26T15:54:54.725Z,2.70
2023-10-26T15:57:23.318Z,2.83
2023-10-26T15:59:50.852Z,2.45
2023-10-26T16:02:19.600Z,3.00
2023-10-26T16:04:47.005Z,2.58
2023-10-26T16:07:14.755Z,2.70
2023-10-26T16:09:42.171Z,3.08
2023-10-26T16:12:09.834Z,3.25
2023-10-26T16:14:37.341Z,3.15
2023-10-26T16:17:05.187Z,2.95
2023-10-26T16:19:32.550Z,3.10
2023-10-26T16:22:00.275Z,3.50
2023-10-26T16:24:27.890Z,3.85
2023-10-26T16:26:56.066Z,3.38
2023-10-26T16:29:23.510Z,2.92
2023-10-26T16:31:51.220Z,3.75
2023-10-26T16:34:18.542Z,2.97
2023-10-26T16:36:46.534Z,3.35
2023-10-26T16:39:13.970Z,3.30
2023-10-26T16:41:41.823Z,3.13
2023-10-26T16:44:09.311Z,3.45
2023-10-26T16:46:37.496Z,3.15
2023-10-26T16:49:05.068Z,3.08
2023-10-26T16:51:34.879Z,3.25
2023-10-26T16:54:02.424Z,4.20
2023-10-26T16:56:30.452Z,4.10
2023-10-26T16:58:58.111Z,4.10
2023-10-26T17:01:25.947Z,3.42
2023-10-26T17:03:53.658Z,3.78
2023-10-26T17:06:21.410Z,3.50
2023-10-26T17:08:49.404Z,3.05
2023-10-26T17:11:17.107Z,4.55
2023-10-26T17:13:44.507Z,4.97
2023-10-26T17:16:12.493Z,4.70
2023-10-26T17:18:40.000Z,4.45
2023-10-26T17:21:07.746Z,4.30
2023-10-26T17:23:35.638Z,4.75
2023-10-26T17:26:03.506Z,4.85
2023-10-26T17:28:31.088Z,5.32
2023-10-26T17:31:07.786Z,6.47
2023-10-26T17:33:35.549Z,5.40
2023-10-26T17:36:04.674Z,5.80
2023-10-26T17:38:35.762Z,6.45
2023-10-26T17:41:17.689Z,7.68
2023-10-26T17:43:45.467Z,6.88
2023-10-26T17:46:16.913Z,9.00
2023-10-26T17:48:45.200Z,8.07
2023-10-26T17:51:13.076Z,7.30
2023-10-26T17:53:42.938Z,6.55
2023-10-26T17:56:13.701Z,6.78
2023-10-26T17:58:42.069Z,6.18
2023-10-26T18:01:11.657Z,6.13
2023-10-26T18:03:39.518Z,5.78
2023-10-26T18:06:07.488Z,5.72
2023-10-26T18:08:36.830Z,5.10
2023-10-26T18:11:05.084Z,6.03
2023-10-26T18:13:33.860Z,4.90
2023-10-26T18:16:09.172Z,5.43
2023-10-26T18:18:38.089Z,7.25
2023-10-26T18:21:08.019Z,6.45
2023-10-26T18:23:36.309Z,6.72
2023-10-26T18:26:06.277Z,6.43
2023-10-26T18:28:35.703Z,6.10
2023-10-26T18:31:17.160Z,6.50
2023-10-26T18:33:47.096Z,5.38
2023-10-26T18:36:21.202Z,5.45
2023-10-26T18:38:49.864Z,5.05
2023-10-26T18:41:20.432Z,4.93
2023-10-26T18:43:50.113Z,4.70
2023-10-26T18:46:18.478Z,4.47
2023-10-26T18:48:45.929Z,4.80
2023-10-26T18:51:13.908Z,4.03
2023-10-26T18:53:42.693Z,4.85
2023-10-26T18:56:20.296Z,4.50
2023-10-26T18:58:47.726Z,4.60
2023-10-26T19:01:15.595Z,4.18
2023-10-26T19:03:57.412Z,4.80
2023-10-26T19:06:33.244Z,5.05
2023-10-26T19:09:00.950Z,4.60
2023-10-26T19:11:29.362Z,4.38
2023-10-26T19:13:57.008Z,3.70
2023-10-26T19:16:25.779Z,3.67
2023-10-26T19:18:53.461Z,3.65
2023-10-26T19:21:21.302Z,4.10
2023-10-26T19:23:48.841Z,3.60
2023-10-26T19:26:16.520Z,3.25
2023-10-26T19:28:44.046Z,2.97
2023-10-26T19:31:13.422Z,2.95
2023-10-26T19:33:43.764Z,2.50
2023-10-26T19:36:11.759Z,3.22
2023-10-26T19:38:39.212Z,2.83
2023-10-26T19:41:07.070Z,3.17
2023-10-26T19:43:34.590Z,3.42
2023-10-26T19:46:02.367Z,3.75
2023-10-26T19:48:29.930Z,3.08
2023-10-26T19:50:57.688Z,3.30
2023-10-26T19:53:25.583Z,3.80
2023-10-26T19:55:54.357Z,3.13
2023-10-26T19:58:21.934Z,3.38
2023-10-26T20:00:49.891Z,8.13
2023-10-26T20:03:17.388Z,5.60
2023-10-26T20:05:45.687Z,3.35
2023-10-26T20:08:13.465Z,2.65
2023-10-26T20:10:44.681Z,2.33
2023-10-26T20:13:15.496Z,1.65
2023-10-26T20:15:43.129Z,2.42
2023-10-26T20:18:12.017Z,2.10
2023-10-26T20:20:39.545Z,2.35
2023-10-26T20:23:08.602Z,2.28
2023-10-26T20:25:36.110Z,2.05
2023-10-26T20:28:04.295Z,1.90
2023-10-26T20:30:31.619Z,2.20
2023-10-26T20:32:59.501Z,2.03
2023-10-26T20:35:27.039Z,2.30
2023-10-26T20:37:54.806Z,1.85
2023-10-26T20:40:22.295Z,2.08
2023-10-26T20:42:53.238Z,1.83
2023-10-26T20:45:20.951Z,2.30
2023-10-26T20:47:48.690Z,2.15
2023-10-26T20:50:17.278Z,1.52
2023-10-26T20:52:44.980Z,1.83
2023-10-26T20:55:12.789Z,2.03
2023-10-26T20:57:40.777Z,2.63
2023-10-26T21:00:08.812Z,2.03
2023-10-26T21:02:37.638Z,2.00
2023-10-26T21:05:05.674Z,2.10
2023-10-26T21:07:33.591Z,2.40
2023-10-26T21:10:01.258Z,2.40
2023-10-26T21:12:29.443Z,2.17
2023-10-26T21:14:57.521Z,2.53
2023-10-26T21:17:25.207Z,2.40
2023-10-26T21:19:53.168Z,2.50
2023-10-26T21:22:20.811Z,2.55
2023-10-26T21:24:48.926Z,2.00
2023-10-26T21:27:17.258Z,2.03
2023-10-26T21:29:45.513Z,2.25
2023-10-26T21:32:13.485Z,2.10
2023-10-26T21:34:40.936Z,2.65
2023-10-26T21:37:08.845Z,2.10
2023-10-26T21:39:37.108Z,2.58
2023-10-26T21:42:05.767Z,2.38
2023-10-26T21:44:34.189Z,2.90
2023-10-26T21:47:04.953Z,3.17
2023-10-26T21:49:32.783Z,2.50
2023-10-26T21:52:00.560Z,2.70
2023-10-26T21:54:28.308Z,3.15
2023-10-26T21:56:55.667Z,2.50
2023-10-26T21:59:23.451Z,2.90
2023-10-26T22:01:52.069Z,2.67
2023-10-26T22:04:22.471Z,3.03
2023-10-26T22:06:50.295Z,2.50
2023-10-26T22:09:18.462Z,3.30
2023-10-26T22:11:45.875Z,2.55
2023-10-26T22:14:13.680Z,2.55
2023-10-26T22:16:41.563Z,2.90
2023-10-26T22:19:09.512Z,3.03
2023-10-26T22:21:36.814Z,2.78
2023-10-26T22:24:04.855Z,2.78
2023-10-26T22:26:32.228Z,2.55
2023-10-26T22:28:59.886Z,2.67
2023-10-26T22:31:27.549Z,2.88
2023-10-26T22:33:55.328Z,2.97
2023-10-26T22:36:22.685Z,3.22
2023-10-26T22:38:50.445Z,2.70
2023-10-26T22:41:17.940Z,2.63
2023-10-26T22:43:45.541Z,3.20
2023-10-26T22:46:13.111Z,2.95
2023-10-26T22:48:40.791Z,3.80
2023-10-26T22:51:08.057Z,3.45
2023-10-26T22:53:36.064Z,3.60
2023-10-26T22:56:03.602Z,2.90
2023-10-26T22:58:31.303Z,3.45
2023-10-26T23:01:05.025Z,3.47
2023-10-26T23:03:32.764Z,3.50
2023-10-26T23:06:00.300Z,3.70
2023-10-26T23:08:28.438Z,3.85
2023-10-26T23:10:55.751Z,3.92
2023-10-26T23:13:23.489Z,3.85
2023-10-26T23:15:51.136Z,4.15
2023-10-26T23:18:19.024Z,4.80
2023-10-26T23:20:46.344Z,4.53
2023-10-26T23:23:14.035Z,5.30
2023-10-26T23:25:45.473Z,5.32
2023-10-26T23:30:40.761Z,5.25
2023-10-26T23:33:09.079Z,4.90
2023-10-26T23:35:42.808Z,5.10
2023-10-26T23:38:10.371Z,4.72
2023-10-26T23:40:38.284Z,5.50
2023-10-26T23:43:06.055Z,5.78
2023-10-26T23:45:33.459Z,4.95
2023-10-26T23:48:01.226Z,5.82
2023-10-26T23:50:28.731Z,5.82
2023-10-26T23:52:56.388Z,6.40
2023-10-26T23:55:23.807Z,6.45
2023-10-26T23:57:51.460Z,5.28
